Woody, CA (93287)

6:02 PM PDT on July 24, 2016 (GMT -0700)
Hungry Gulch | | Change Station

Elev 3054 ft 35.67 °N, 118.48 °W | Updated 8 minutes ago

Clear
Clear
98.1 °F
Feels Like 93 °F
N
7.3
Wind Variable Wind from SE

Today
High -- | Low -- °F
--% Chance of Precip.
Yesterday
High -- | Low -- °F
Precip. -- in
Pressure 29.75 in
Visibility 10.0 miles
Clouds Clear
Heat Index 93 °F
Dew Point 32 °F
Humidity 10%
Rainfall 0.00 in
Snow Depth Not available.
5:57 AM 8:05 PM
Waning Gibbous, 71% visible
METAR KBFL 250054Z 31005KT 10SM CLR 41/02 A2977 RMK AO2 SLP073 T04060017 $
Pressure 29.75 in
Visibility 10.0 miles
Clouds Clear
Heat Index 93 °F
Dew Point 32 °F
Humidity 10%
Rainfall 0.00 in
Snow Depth Not available.
5:57 AM 8:05 PM
Waning Gibbous, 71% visible
METAR KBFL 250054Z 31005KT 10SM CLR 41/02 A2977 RMK AO2 SLP073 T04060017 $

10-Day Weather Forecast

Almanac

Astronomy

Jul. 24, 2016 Rise Set
Actual Time
Civil Twilight
Nautical Twilight
Astronomical Twilight
Moon
Length of Visible Light
Length of Day
Tomorrow will be .
, % of the Moon is Illuminated

Today's Extremes

State Highs State Lows

Community

WunderPhotos

Upload Photos

1,927,224 photos uploaded!

WunderBlog® & News

Nearby

Air Quality

  Air Quality AQ Index Pollutant
Not available.

Snow Depth

Station Depth Elevation

Earthquake Activity

City Distance Mag. Time & Date
Minimum magnitude displayed is 2.5.

Coastal Water Temperatures

Place Temperature

Stations

Nearby Weather Stations

Station Location Temp. Windchill Dew Point Humidity Wind Precip. Elev Updated Type
                   

Watches & Warnings

There are currently no watches in effect.